sensor_id;sensor_type;location;lat;lon;timestamp;P1;durP1;ratioP1;P2;durP2;ratioP2
51248;SDS011;39642;47.556;18.728;2024-01-10T00:01:36;15.02;;;6.65;;
51248;SDS011;39642;47.556;18.728;2024-01-10T00:04:02;12.82;;;6.20;;
51248;SDS011;39642;47.556;18.728;2024-01-10T00:06:28;12.98;;;6.28;;
51248;SDS011;39642;47.556;18.728;2024-01-10T00:08:54;13.43;;;6.53;;
51248;SDS011;39642;47.556;18.728;2024-01-10T00:11:20;14.35;;;6.93;;
51248;SDS011;39642;47.556;18.728;2024-01-10T00:13:45;14.73;;;6.32;;
51248;SDS011;39642;47.556;18.728;2024-01-10T00:16:11;12.93;;;6.25;;
51248;SDS011;39642;47.556;18.728;2024-01-10T00:18:39;13.30;;;5.93;;
51248;SDS011;39642;47.556;18.728;2024-01-10T00:21:06;13.62;;;6.90;;
51248;SDS011;39642;47.556;18.728;2024-01-10T00:23:32;12.30;;;5.70;;
51248;SDS011;39642;47.556;18.728;2024-01-10T00:25:58;13.35;;;6.60;;
51248;SDS011;39642;47.556;18.728;2024-01-10T00:28:24;13.80;;;6.35;;
51248;SDS011;39642;47.556;18.728;2024-01-10T00:30:51;13.90;;;6.07;;
51248;SDS011;39642;47.556;18.728;2024-01-10T00:33:17;12.15;;;5.80;;
51248;SDS011;39642;47.556;18.728;2024-01-10T00:35:43;14.27;;;6.60;;
51248;SDS011;39642;47.556;18.728;2024-01-10T00:38:09;13.10;;;6.10;;
51248;SDS011;39642;47.556;18.728;2024-01-10T00:40:35;13.10;;;5.87;;
51248;SDS011;39642;47.556;18.728;2024-01-10T00:43:01;12.60;;;6.10;;
51248;SDS011;39642;47.556;18.728;2024-01-10T00:45:28;14.60;;;6.53;;
51248;SDS011;39642;47.556;18.728;2024-01-10T00:47:54;12.43;;;6.07;;
51248;SDS011;39642;47.556;18.728;2024-01-10T00:50:19;13.50;;;6.25;;
51248;SDS011;39642;47.556;18.728;2024-01-10T00:52:46;11.57;;;5.35;;
51248;SDS011;39642;47.556;18.728;2024-01-10T00:55:12;12.52;;;5.87;;
51248;SDS011;39642;47.556;18.728;2024-01-10T00:57:38;13.35;;;6.00;;
51248;SDS011;39642;47.556;18.728;2024-01-10T01:00:07;13.23;;;6.28;;
51248;SDS011;39642;47.556;18.728;2024-01-10T01:02:37;13.73;;;6.50;;
51248;SDS011;39642;47.556;18.728;2024-01-10T01:05:06;13.73;;;6.15;;
51248;SDS011;39642;47.556;18.728;2024-01-10T01:07:33;12.45;;;5.95;;
51248;SDS011;39642;47.556;18.728;2024-01-10T01:09:59;12.55;;;6.03;;
51248;SDS011;39642;47.556;18.728;2024-01-10T01:12:25;12.30;;;5.60;;
51248;SDS011;39642;47.556;18.728;2024-01-10T01:14:51;12.70;;;5.95;;
51248;SDS011;39642;47.556;18.728;2024-01-10T01:17:17;13.98;;;5.57;;
51248;SDS011;39642;47.556;18.728;2024-01-10T01:19:43;12.48;;;5.65;;
51248;SDS011;39642;47.556;18.728;2024-01-10T01:22:09;12.98;;;6.18;;
51248;SDS011;39642;47.556;18.728;2024-01-10T01:24:35;12.90;;;5.25;;
51248;SDS011;39642;47.556;18.728;2024-01-10T01:27:02;12.57;;;5.85;;
51248;SDS011;39642;47.556;18.728;2024-01-10T01:29:28;12.90;;;6.10;;
51248;SDS011;39642;47.556;18.728;2024-01-10T01:31:54;12.45;;;5.60;;
51248;SDS011;39642;47.556;18.728;2024-01-10T01:34:20;12.98;;;6.12;;
51248;SDS011;39642;47.556;18.728;2024-01-10T01:36:46;12.95;;;5.90;;
51248;SDS011;39642;47.556;18.728;2024-01-10T01:39:12;13.75;;;6.30;;
51248;SDS011;39642;47.556;18.728;2024-01-10T01:41:41;13.77;;;6.12;;
51248;SDS011;39642;47.556;18.728;2024-01-10T01:44:07;12.75;;;6.22;;
51248;SDS011;39642;47.556;18.728;2024-01-10T01:46:32;13.23;;;5.97;;
51248;SDS011;39642;47.556;18.728;2024-01-10T01:48:59;12.88;;;6.05;;
51248;SDS011;39642;47.556;18.728;2024-01-10T01:51:25;12.37;;;5.80;;
51248;SDS011;39642;47.556;18.728;2024-01-10T01:53:54;12.88;;;5.80;;
51248;SDS011;39642;47.556;18.728;2024-01-10T01:56:20;12.73;;;5.78;;
51248;SDS011;39642;47.556;18.728;2024-01-10T01:58:46;12.60;;;5.68;;
51248;SDS011;39642;47.556;18.728;2024-01-10T02:01:13;13.30;;;6.35;;
51248;SDS011;39642;47.556;18.728;2024-01-10T02:03:40;12.88;;;6.28;;
51248;SDS011;39642;47.556;18.728;2024-01-10T02:06:06;12.45;;;5.62;;
51248;SDS011;39642;47.556;18.728;2024-01-10T02:08:32;13.13;;;6.25;;
51248;SDS011;39642;47.556;18.728;2024-01-10T02:11:00;12.02;;;5.80;;
51248;SDS011;39642;47.556;18.728;2024-01-10T02:13:27;12.73;;;6.00;;
51248;SDS011;39642;47.556;18.728;2024-01-10T02:15:53;12.75;;;5.62;;
51248;SDS011;39642;47.556;18.728;2024-01-10T02:18:20;13.65;;;5.93;;
51248;SDS011;39642;47.556;18.728;2024-01-10T02:20:46;12.82;;;5.53;;
51248;SDS011;39642;47.556;18.728;2024-01-10T02:23:12;11.25;;;5.37;;
51248;SDS011;39642;47.556;18.728;2024-01-10T02:25:39;13.07;;;5.93;;
51248;SDS011;39642;47.556;18.728;2024-01-10T02:28:06;13.52;;;5.90;;
51248;SDS011;39642;47.556;18.728;2024-01-10T02:30:33;12.55;;;5.55;;
51248;SDS011;39642;47.556;18.728;2024-01-10T02:32:59;11.98;;;5.47;;
51248;SDS011;39642;47.556;18.728;2024-01-10T02:35:25;13.02;;;6.15;;
51248;SDS011;39642;47.556;18.728;2024-01-10T02:37:52;12.30;;;5.32;;
51248;SDS011;39642;47.556;18.728;2024-01-10T02:40:20;12.20;;;5.47;;
51248;SDS011;39642;47.556;18.728;2024-01-10T02:42:46;12.15;;;5.60;;
51248;SDS011;39642;47.556;18.728;2024-01-10T02:45:12;13.48;;;5.75;;
51248;SDS011;39642;47.556;18.728;2024-01-10T02:47:38;13.10;;;5.53;;
51248;SDS011;39642;47.556;18.728;2024-01-10T02:50:05;12.75;;;5.70;;
51248;SDS011;39642;47.556;18.728;2024-01-10T02:52:31;11.98;;;5.60;;
51248;SDS011;39642;47.556;18.728;2024-01-10T02:54:57;12.70;;;5.62;;
51248;SDS011;39642;47.556;18.728;2024-01-10T02:57:23;11.80;;;5.40;;
51248;SDS011;39642;47.556;18.728;2024-01-10T02:59:49;11.82;;;5.28;;
51248;SDS011;39642;47.556;18.728;2024-01-10T03:02:15;12.23;;;5.70;;
51248;SDS011;39642;47.556;18.728;2024-01-10T03:04:41;12.10;;;5.57;;
51248;SDS011;39642;47.556;18.728;2024-01-10T03:07:07;11.85;;;5.50;;
51248;SDS011;39642;47.556;18.728;2024-01-10T03:09:33;12.55;;;5.45;;
51248;SDS011;39642;47.556;18.728;2024-01-10T03:11:59;11.68;;;5.12;;
51248;SDS011;39642;47.556;18.728;2024-01-10T03:14:25;12.63;;;5.40;;
51248;SDS011;39642;47.556;18.728;2024-01-10T03:16:51;11.85;;;5.30;;
51248;SDS011;39642;47.556;18.728;2024-01-10T03:19:16;11.23;;;5.28;;
51248;SDS011;39642;47.556;18.728;2024-01-10T03:21:42;12.48;;;5.32;;
51248;SDS011;39642;47.556;18.728;2024-01-10T03:24:08;13.07;;;5.68;;
51248;SDS011;39642;47.556;18.728;2024-01-10T03:26:34;12.60;;;5.05;;
51248;SDS011;39642;47.556;18.728;2024-01-10T03:29:00;12.55;;;5.45;;
51248;SDS011;39642;47.556;18.728;2024-01-10T03:31:27;11.73;;;5.55;;
51248;SDS011;39642;47.556;18.728;2024-01-10T03:33:54;10.85;;;5.10;;
51248;SDS011;39642;47.556;18.728;2024-01-10T03:36:19;12.13;;;5.35;;
51248;SDS011;39642;47.556;18.728;2024-01-10T03:38:45;11.52;;;5.30;;
51248;SDS011;39642;47.556;18.728;2024-01-10T03:41:15;12.32;;;5.20;;
51248;SDS011;39642;47.556;18.728;2024-01-10T03:43:41;12.05;;;5.12;;
51248;SDS011;39642;47.556;18.728;2024-01-10T03:46:08;13.50;;;5.00;;
51248;SDS011;39642;47.556;18.728;2024-01-10T03:48:34;12.32;;;5.15;;
51248;SDS011;39642;47.556;18.728;2024-01-10T03:51:00;12.73;;;5.28;;
51248;SDS011;39642;47.556;18.728;2024-01-10T03:53:26;11.07;;;4.50;;
51248;SDS011;39642;47.556;18.728;2024-01-10T03:55:52;12.05;;;5.35;;
51248;SDS011;39642;47.556;18.728;2024-01-10T03:58:18;12.55;;;5.35;;
51248;SDS011;39642;47.556;18.728;2024-01-10T04:00:44;10.57;;;4.53;;
51248;SDS011;39642;47.556;18.728;2024-01-10T04:03:10;11.85;;;5.03;;
51248;SDS011;39642;47.556;18.728;2024-01-10T04:05:36;10.95;;;4.75;;
51248;SDS011;39642;47.556;18.728;2024-01-10T04:08:02;11.77;;;4.87;;
51248;SDS011;39642;47.556;18.728;2024-01-10T04:10:29;11.32;;;4.65;;
51248;SDS011;39642;47.556;18.728;2024-01-10T04:12:55;11.73;;;5.28;;
51248;SDS011;39642;47.556;18.728;2024-01-10T04:15:21;11.38;;;4.82;;
51248;SDS011;39642;47.556;18.728;2024-01-10T04:17:47;12.07;;;5.20;;
51248;SDS011;39642;47.556;18.728;2024-01-10T04:20:13;10.80;;;5.10;;
51248;SDS011;39642;47.556;18.728;2024-01-10T04:22:39;10.60;;;5.03;;
51248;SDS011;39642;47.556;18.728;2024-01-10T04:25:05;11.82;;;5.15;;
51248;SDS011;39642;47.556;18.728;2024-01-10T04:27:32;11.57;;;4.95;;
51248;SDS011;39642;47.556;18.728;2024-01-10T04:29:58;10.77;;;4.75;;
51248;SDS011;39642;47.556;18.728;2024-01-10T04:32:24;11.77;;;5.22;;
51248;SDS011;39642;47.556;18.728;2024-01-10T04:34:50;11.07;;;4.93;;
51248;SDS011;39642;47.556;18.728;2024-01-10T04:37:17;11.85;;;5.10;;
51248;SDS011;39642;47.556;18.728;2024-01-10T04:39:44;12.63;;;5.30;;
51248;SDS011;39642;47.556;18.728;2024-01-10T04:42:12;10.95;;;4.60;;
51248;SDS011;39642;47.556;18.728;2024-01-10T04:44:38;11.93;;;5.32;;
51248;SDS011;39642;47.556;18.728;2024-01-10T04:47:04;11.48;;;4.90;;
51248;SDS011;39642;47.556;18.728;2024-01-10T04:49:31;12.25;;;5.28;;
51248;SDS011;39642;47.556;18.728;2024-01-10T04:51:57;12.37;;;5.05;;
51248;SDS011;39642;47.556;18.728;2024-01-10T04:54:23;12.07;;;5.28;;
51248;SDS011;39642;47.556;18.728;2024-01-10T04:56:49;11.68;;;5.30;;
51248;SDS011;39642;47.556;18.728;2024-01-10T04:59:14;12.02;;;5.43;;
51248;SDS011;39642;47.556;18.728;2024-01-10T05:01:40;11.55;;;5.12;;
51248;SDS011;39642;47.556;18.728;2024-01-10T05:04:06;12.15;;;5.15;;
51248;SDS011;39642;47.556;18.728;2024-01-10T05:06:32;13.07;;;5.57;;
51248;SDS011;39642;47.556;18.728;2024-01-10T05:08:58;11.95;;;5.43;;
51248;SDS011;39642;47.556;18.728;2024-01-10T05:11:24;12.52;;;5.25;;
51248;SDS011;39642;47.556;18.728;2024-01-10T05:13:51;12.05;;;5.32;;
51248;SDS011;39642;47.556;18.728;2024-01-10T05:16:18;12.30;;;5.68;;
51248;SDS011;39642;47.556;18.728;2024-01-10T05:18:44;13.30;;;5.68;;
51248;SDS011;39642;47.556;18.728;2024-01-10T05:21:10;12.10;;;5.45;;
51248;SDS011;39642;47.556;18.728;2024-01-10T05:23:36;13.18;;;5.70;;
51248;SDS011;39642;47.556;18.728;2024-01-10T05:26:04;13.75;;;5.40;;
51248;SDS011;39642;47.556;18.728;2024-01-10T05:28:30;12.75;;;5.78;;
51248;SDS011;39642;47.556;18.728;2024-01-10T05:30:56;12.32;;;5.62;;
51248;SDS011;39642;47.556;18.728;2024-01-10T05:33:23;13.05;;;5.90;;
51248;SDS011;39642;47.556;18.728;2024-01-10T05:35:49;13.02;;;5.90;;
51248;SDS011;39642;47.556;18.728;2024-01-10T05:38:15;15.05;;;6.28;;
51248;SDS011;39642;47.556;18.728;2024-01-10T05:40:40;15.65;;;6.47;;
51248;SDS011;39642;47.556;18.728;2024-01-10T05:43:07;15.82;;;6.37;;
51248;SDS011;39642;47.556;18.728;2024-01-10T05:45:33;18.83;;;6.90;;
51248;SDS011;39642;47.556;18.728;2024-01-10T05:47:59;15.93;;;6.15;;
51248;SDS011;39642;47.556;18.728;2024-01-10T05:50:25;11.20;;;5.15;;
51248;SDS011;39642;47.556;18.728;2024-01-10T05:52:51;15.10;;;5.40;;
51248;SDS011;39642;47.556;18.728;2024-01-10T05:55:16;13.68;;;5.15;;
51248;SDS011;39642;47.556;18.728;2024-01-10T05:57:42;17.05;;;7.53;;
51248;SDS011;39642;47.556;18.728;2024-01-10T06:00:08;14.55;;;7.20;;
51248;SDS011;39642;47.556;18.728;2024-01-10T06:02:44;13.85;;;6.40;;
51248;SDS011;39642;47.556;18.728;2024-01-10T06:05:10;15.30;;;6.20;;
51248;SDS011;39642;47.556;18.728;2024-01-10T06:07:40;15.40;;;6.55;;
51248;SDS011;39642;47.556;18.728;2024-01-10T06:10:06;14.95;;;6.12;;
51248;SDS011;39642;47.556;18.728;2024-01-10T06:12:32;14.63;;;6.70;;
51248;SDS011;39642;47.556;18.728;2024-01-10T06:14:58;15.43;;;6.85;;
51248;SDS011;39642;47.556;18.728;2024-01-10T06:17:24;14.73;;;6.60;;
51248;SDS011;39642;47.556;18.728;2024-01-10T06:19:50;15.50;;;7.22;;
51248;SDS011;39642;47.556;18.728;2024-01-10T06:22:16;15.07;;;6.90;;
51248;SDS011;39642;47.556;18.728;2024-01-10T06:24:43;17.58;;;8.05;;
51248;SDS011;39642;47.556;18.728;2024-01-10T06:27:09;16.58;;;6.97;;
51248;SDS011;39642;47.556;18.728;2024-01-10T06:29:36;15.98;;;7.25;;
51248;SDS011;39642;47.556;18.728;2024-01-10T06:32:05;17.75;;;6.80;;
51248;SDS011;39642;47.556;18.728;2024-01-10T06:34:32;19.00;;;7.72;;
51248;SDS011;39642;47.556;18.728;2024-01-10T06:51:36;28.33;;;11.57;;
51248;SDS011;39642;47.556;18.728;2024-01-10T06:54:03;22.48;;;9.57;;
51248;SDS011;39642;47.556;18.728;2024-01-10T06:56:31;26.00;;;11.88;;
51248;SDS011;39642;47.556;18.728;2024-01-10T06:58:58;21.25;;;9.38;;
51248;SDS011;39642;47.556;18.728;2024-01-10T07:01:24;23.27;;;11.38;;
51248;SDS011;39642;47.556;18.728;2024-01-10T07:03:52;29.70;;;12.95;;
51248;SDS011;39642;47.556;18.728;2024-01-10T07:06:18;22.87;;;11.23;;
51248;SDS011;39642;47.556;18.728;2024-01-10T07:08:45;23.38;;;10.48;;
51248;SDS011;39642;47.556;18.728;2024-01-10T07:11:15;23.20;;;9.50;;
51248;SDS011;39642;47.556;18.728;2024-01-10T07:13:41;23.10;;;9.82;;
51248;SDS011;39642;47.556;18.728;2024-01-10T07:16:08;22.33;;;8.93;;
51248;SDS011;39642;47.556;18.728;2024-01-10T07:18:35;23.00;;;10.88;;
51248;SDS011;39642;47.556;18.728;2024-01-10T07:21:02;20.33;;;9.70;;
51248;SDS011;39642;47.556;18.728;2024-01-10T07:23:28;26.60;;;12.73;;
51248;SDS011;39642;47.556;18.728;2024-01-10T07:25:54;30.02;;;12.48;;
51248;SDS011;39642;47.556;18.728;2024-01-10T07:28:21;18.70;;;9.52;;
51248;SDS011;39642;47.556;18.728;2024-01-10T07:30:47;18.70;;;9.65;;
51248;SDS011;39642;47.556;18.728;2024-01-10T07:33:13;27.77;;;11.12;;
51248;SDS011;39642;47.556;18.728;2024-01-10T07:35:39;23.23;;;10.43;;
51248;SDS011;39642;47.556;18.728;2024-01-10T07:38:05;36.38;;;13.57;;
51248;SDS011;39642;47.556;18.728;2024-01-10T07:40:34;29.12;;;13.25;;
51248;SDS011;39642;47.556;18.728;2024-01-10T07:43:00;38.53;;;14.48;;
51248;SDS011;39642;47.556;18.728;2024-01-10T07:45:27;30.58;;;12.50;;
51248;SDS011;39642;47.556;18.728;2024-01-10T07:47:53;32.05;;;12.88;;
51248;SDS011;39642;47.556;18.728;2024-01-10T07:50:19;23.05;;;9.98;;
51248;SDS011;39642;47.556;18.728;2024-01-10T07:52:45;30.88;;;13.62;;
51248;SDS011;39642;47.556;18.728;2024-01-10T07:55:11;28.85;;;12.02;;
51248;SDS011;39642;47.556;18.728;2024-01-10T07:57:38;28.38;;;12.25;;
51248;SDS011;39642;47.556;18.728;2024-01-10T08:00:05;26.73;;;12.82;;
51248;SDS011;39642;47.556;18.728;2024-01-10T08:02:39;30.70;;;12.30;;
51248;SDS011;39642;47.556;18.728;2024-01-10T08:05:05;27.42;;;11.52;;
51248;SDS011;39642;47.556;18.728;2024-01-10T08:07:36;27.62;;;12.48;;
51248;SDS011;39642;47.556;18.728;2024-01-10T08:10:09;33.88;;;13.20;;
51248;SDS011;39642;47.556;18.728;2024-01-10T08:12:36;25.85;;;12.63;;
51248;SDS011;39642;47.556;18.728;2024-01-10T08:15:04;32.13;;;12.35;;
51248;SDS011;39642;47.556;18.728;2024-01-10T08:17:32;32.63;;;13.48;;
51248;SDS011;39642;47.556;18.728;2024-01-10T08:19:58;25.37;;;12.32;;
51248;SDS011;39642;47.556;18.728;2024-01-10T08:22:26;28.55;;;13.00;;
51248;SDS011;39642;47.556;18.728;2024-01-10T08:24:52;25.60;;;13.00;;
51248;SDS011;39642;47.556;18.728;2024-01-10T08:27:18;28.17;;;13.62;;
51248;SDS011;39642;47.556;18.728;2024-01-10T08:42:35;28.40;;;13.15;;
51248;SDS011;39642;47.556;18.728;2024-01-10T08:57:18;29.87;;;13.23;;
51248;SDS011;39642;47.556;18.728;2024-01-10T08:59:48;31.37;;;13.35;;
51248;SDS011;39642;47.556;18.728;2024-01-10T09:02:18;33.90;;;13.62;;
51248;SDS011;39642;47.556;18.728;2024-01-10T09:04:45;36.30;;;13.35;;
51248;SDS011;39642;47.556;18.728;2024-01-10T09:07:12;25.83;;;12.00;;
51248;SDS011;39642;47.556;18.728;2024-01-10T09:09:46;26.25;;;12.65;;
51248;SDS011;39642;47.556;18.728;2024-01-10T09:12:12;28.00;;;13.50;;
51248;SDS011;39642;47.556;18.728;2024-01-10T09:14:38;32.92;;;13.00;;
51248;SDS011;39642;47.556;18.728;2024-01-10T09:17:05;29.05;;;12.95;;
51248;SDS011;39642;47.556;18.728;2024-01-10T09:19:30;29.10;;;13.77;;
51248;SDS011;39642;47.556;18.728;2024-01-10T09:21:56;32.30;;;13.93;;
51248;SDS011;39642;47.556;18.728;2024-01-10T09:24:23;27.85;;;13.13;;
51248;SDS011;39642;47.556;18.728;2024-01-10T09:26:51;29.95;;;15.70;;
51248;SDS011;39642;47.556;18.728;2024-01-10T09:29:19;34.70;;;15.10;;
51248;SDS011;39642;47.556;18.728;2024-01-10T09:31:45;27.33;;;13.18;;
51248;SDS011;39642;47.556;18.728;2024-01-10T09:34:14;25.27;;;13.62;;
51248;SDS011;39642;47.556;18.728;2024-01-10T09:36:40;35.45;;;15.27;;
51248;SDS011;39642;47.556;18.728;2024-01-10T09:39:05;26.95;;;13.35;;
51248;SDS011;39642;47.556;18.728;2024-01-10T09:41:37;30.85;;;15.10;;
51248;SDS011;39642;47.556;18.728;2024-01-10T09:44:08;28.80;;;12.48;;
51248;SDS011;39642;47.556;18.728;2024-01-10T09:46:35;30.92;;;12.27;;
51248;SDS011;39642;47.556;18.728;2024-01-10T09:49:06;33.75;;;11.98;;
51248;SDS011;39642;47.556;18.728;2024-01-10T09:51:33;44.78;;;14.00;;
51248;SDS011;39642;47.556;18.728;2024-01-10T09:53:59;41.22;;;14.87;;
51248;SDS011;39642;47.556;18.728;2024-01-10T09:56:28;26.42;;;11.73;;
51248;SDS011;39642;47.556;18.728;2024-01-10T09:58:55;36.58;;;12.75;;
51248;SDS011;39642;47.556;18.728;2024-01-10T10:01:23;30.67;;;13.68;;
51248;SDS011;39642;47.556;18.728;2024-01-10T10:03:50;26.83;;;11.23;;
51248;SDS011;39642;47.556;18.728;2024-01-10T10:06:16;36.55;;;13.50;;
51248;SDS011;39642;47.556;18.728;2024-01-10T10:08:42;31.35;;;12.48;;
51248;SDS011;39642;47.556;18.728;2024-01-10T10:11:11;31.65;;;13.00;;
51248;SDS011;39642;47.556;18.728;2024-01-10T10:13:41;33.33;;;12.85;;
51248;SDS011;39642;47.556;18.728;2024-01-10T10:16:08;33.17;;;12.35;;
51248;SDS011;39642;47.556;18.728;2024-01-10T10:18:39;28.25;;;10.68;;
51248;SDS011;39642;47.556;18.728;2024-01-10T10:21:08;28.95;;;12.45;;
51248;SDS011;39642;47.556;18.728;2024-01-10T10:23:38;28.12;;;12.95;;
51248;SDS011;39642;47.556;18.728;2024-01-10T10:26:15;28.55;;;11.73;;
51248;SDS011;39642;47.556;18.728;2024-01-10T10:28:52;26.50;;;11.60;;
51248;SDS011;39642;47.556;18.728;2024-01-10T10:31:18;30.27;;;11.73;;
51248;SDS011;39642;47.556;18.728;2024-01-10T10:33:45;28.08;;;12.20;;
51248;SDS011;39642;47.556;18.728;2024-01-10T10:36:14;30.27;;;12.02;;
51248;SDS011;39642;47.556;18.728;2024-01-10T10:38:40;28.15;;;11.90;;
51248;SDS011;39642;47.556;18.728;2024-01-10T10:41:06;27.00;;;11.38;;
51248;SDS011;39642;47.556;18.728;2024-01-10T10:43:38;25.35;;;10.32;;
51248;SDS011;39642;47.556;18.728;2024-01-10T10:46:05;28.85;;;11.80;;
51248;SDS011;39642;47.556;18.728;2024-01-10T10:48:33;30.62;;;10.82;;
51248;SDS011;39642;47.556;18.728;2024-01-10T10:51:05;31.30;;;11.40;;
51248;SDS011;39642;47.556;18.728;2024-01-10T10:53:35;30.55;;;12.68;;
51248;SDS011;39642;47.556;18.728;2024-01-10T10:56:04;40.53;;;12.32;;
51248;SDS011;39642;47.556;18.728;2024-01-10T10:58:42;35.92;;;12.07;;
51248;SDS011;39642;47.556;18.728;2024-01-10T11:01:11;32.53;;;11.55;;
51248;SDS011;39642;47.556;18.728;2024-01-10T11:03:38;34.00;;;13.15;;
51248;SDS011;39642;47.556;18.728;2024-01-10T11:06:06;41.70;;;14.57;;
51248;SDS011;39642;47.556;18.728;2024-01-10T11:08:34;35.22;;;14.27;;
51248;SDS011;39642;47.556;18.728;2024-01-10T11:11:02;30.83;;;12.48;;
51248;SDS011;39642;47.556;18.728;2024-01-10T11:24:25;38.55;;;15.18;;
51248;SDS011;39642;47.556;18.728;2024-01-10T11:27:07;36.05;;;14.57;;
51248;SDS011;39642;47.556;18.728;2024-01-10T11:29:37;42.75;;;15.13;;
51248;SDS011;39642;47.556;18.728;2024-01-10T11:32:14;30.08;;;13.10;;
51248;SDS011;39642;47.556;18.728;2024-01-10T11:37:19;40.03;;;14.65;;
51248;SDS011;39642;47.556;18.728;2024-01-10T11:39:45;33.97;;;13.70;;
51248;SDS011;39642;47.556;18.728;2024-01-10T11:42:11;38.20;;;13.55;;
51248;SDS011;39642;47.556;18.728;2024-01-10T11:44:49;33.63;;;13.30;;
51248;SDS011;39642;47.556;18.728;2024-01-10T11:47:20;23.58;;;9.05;;
51248;SDS011;39642;47.556;18.728;2024-01-10T11:49:56;35.10;;;12.95;;
51248;SDS011;39642;47.556;18.728;2024-01-10T11:52:26;39.13;;;11.98;;
51248;SDS011;39642;47.556;18.728;2024-01-10T11:54:59;37.40;;;11.82;;
51248;SDS011;39642;47.556;18.728;2024-01-10T11:57:26;30.50;;;11.55;;
51248;SDS011;39642;47.556;18.728;2024-01-10T11:59:54;34.15;;;11.25;;
51248;SDS011;39642;47.556;18.728;2024-01-10T12:02:23;32.75;;;10.55;;
51248;SDS011;39642;47.556;18.728;2024-01-10T12:04:50;33.55;;;11.27;;
51248;SDS011;39642;47.556;18.728;2024-01-10T12:07:17;28.87;;;11.45;;
51248;SDS011;39642;47.556;18.728;2024-01-10T12:09:44;34.50;;;10.88;;
51248;SDS011;39642;47.556;18.728;2024-01-10T12:12:11;28.58;;;9.40;;
51248;SDS011;39642;47.556;18.728;2024-01-10T12:14:38;27.17;;;9.30;;
51248;SDS011;39642;47.556;18.728;2024-01-10T12:17:05;29.75;;;11.02;;
51248;SDS011;39642;47.556;18.728;2024-01-10T12:19:34;40.15;;;10.75;;
51248;SDS011;39642;47.556;18.728;2024-01-10T12:22:01;31.50;;;10.05;;
51248;SDS011;39642;47.556;18.728;2024-01-10T12:24:27;35.38;;;9.68;;
51248;SDS011;39642;47.556;18.728;2024-01-10T12:26:56;26.05;;;9.45;;
51248;SDS011;39642;47.556;18.728;2024-01-10T12:29:22;36.00;;;9.45;;
51248;SDS011;39642;47.556;18.728;2024-01-10T12:31:50;24.02;;;8.57;;
51248;SDS011;39642;47.556;18.728;2024-01-10T12:34:17;29.80;;;9.82;;
51248;SDS011;39642;47.556;18.728;2024-01-10T12:36:43;31.62;;;10.15;;
51248;SDS011;39642;47.556;18.728;2024-01-10T12:39:10;37.47;;;10.65;;
51248;SDS011;39642;47.556;18.728;2024-01-10T12:41:37;34.70;;;9.73;;
51248;SDS011;39642;47.556;18.728;2024-01-10T12:44:05;33.60;;;9.75;;
51248;SDS011;39642;47.556;18.728;2024-01-10T12:46:32;26.42;;;8.48;;
51248;SDS011;39642;47.556;18.728;2024-01-10T12:48:59;40.75;;;9.55;;
51248;SDS011;39642;47.556;18.728;2024-01-10T12:51:29;31.55;;;9.05;;
51248;SDS011;39642;47.556;18.728;2024-01-10T12:53:56;37.17;;;10.57;;
51248;SDS011;39642;47.556;18.728;2024-01-10T12:56:26;46.33;;;9.95;;
51248;SDS011;39642;47.556;18.728;2024-01-10T13:02:22;32.92;;;8.98;;
51248;SDS011;39642;47.556;18.728;2024-01-10T13:04:48;45.75;;;9.38;;
51248;SDS011;39642;47.556;18.728;2024-01-10T13:07:14;32.50;;;9.70;;
51248;SDS011;39642;47.556;18.728;2024-01-10T13:09:39;33.92;;;9.43;;
51248;SDS011;39642;47.556;18.728;2024-01-10T13:12:05;40.33;;;9.43;;
51248;SDS011;39642;47.556;18.728;2024-01-10T13:14:32;39.08;;;9.48;;
51248;SDS011;39642;47.556;18.728;2024-01-10T13:16:58;32.60;;;9.15;;
51248;SDS011;39642;47.556;18.728;2024-01-10T13:19:24;32.25;;;9.13;;
51248;SDS011;39642;47.556;18.728;2024-01-10T13:21:50;26.17;;;8.48;;
51248;SDS011;39642;47.556;18.728;2024-01-10T13:24:17;30.55;;;9.32;;
51248;SDS011;39642;47.556;18.728;2024-01-10T13:26:43;31.20;;;9.68;;
51248;SDS011;39642;47.556;18.728;2024-01-10T13:29:09;32.53;;;10.15;;
51248;SDS011;39642;47.556;18.728;2024-01-10T13:31:35;35.15;;;10.07;;
51248;SDS011;39642;47.556;18.728;2024-01-10T13:34:02;37.15;;;9.75;;
51248;SDS011;39642;47.556;18.728;2024-01-10T13:36:29;30.00;;;10.27;;
51248;SDS011;39642;47.556;18.728;2024-01-10T13:38:56;31.52;;;8.93;;
51248;SDS011;39642;47.556;18.728;2024-01-10T13:41:22;30.33;;;9.00;;
51248;SDS011;39642;47.556;18.728;2024-01-10T13:43:47;25.58;;;9.13;;
51248;SDS011;39642;47.556;18.728;2024-01-10T13:46:13;35.03;;;8.75;;
51248;SDS011;39642;47.556;18.728;2024-01-10T13:48:39;42.67;;;10.13;;
51248;SDS011;39642;47.556;18.728;2024-01-10T13:51:06;26.62;;;9.43;;
51248;SDS011;39642;47.556;18.728;2024-01-10T13:53:32;31.48;;;9.65;;
51248;SDS011;39642;47.556;18.728;2024-01-10T13:55:58;27.10;;;8.90;;
51248;SDS011;39642;47.556;18.728;2024-01-10T13:58:26;27.08;;;8.20;;
51248;SDS011;39642;47.556;18.728;2024-01-10T14:00:52;28.98;;;9.32;;
51248;SDS011;39642;47.556;18.728;2024-01-10T14:03:17;25.85;;;8.27;;
51248;SDS011;39642;47.556;18.728;2024-01-10T14:05:43;23.27;;;7.03;;
51248;SDS011;39642;47.556;18.728;2024-01-10T14:08:10;27.95;;;8.82;;
51248;SDS011;39642;47.556;18.728;2024-01-10T14:10:36;23.77;;;8.70;;
51248;SDS011;39642;47.556;18.728;2024-01-10T14:13:04;32.10;;;9.07;;
51248;SDS011;39642;47.556;18.728;2024-01-10T14:15:30;30.65;;;9.63;;
51248;SDS011;39642;47.556;18.728;2024-01-10T14:17:56;33.38;;;10.05;;
51248;SDS011;39642;47.556;18.728;2024-01-10T14:20:23;33.78;;;9.18;;
51248;SDS011;39642;47.556;18.728;2024-01-10T14:22:49;36.25;;;8.95;;
51248;SDS011;39642;47.556;18.728;2024-01-10T14:25:15;37.97;;;10.13;;
51248;SDS011;39642;47.556;18.728;2024-01-10T14:27:41;34.15;;;10.30;;
51248;SDS011;39642;47.556;18.728;2024-01-10T14:30:07;34.47;;;10.63;;
51248;SDS011;39642;47.556;18.728;2024-01-10T14:32:36;41.63;;;10.38;;
51248;SDS011;39642;47.556;18.728;2024-01-10T14:35:03;36.85;;;9.73;;
51248;SDS011;39642;47.556;18.728;2024-01-10T14:37:30;41.55;;;11.65;;
51248;SDS011;39642;47.556;18.728;2024-01-10T14:39:56;30.02;;;10.57;;
51248;SDS011;39642;47.556;18.728;2024-01-10T14:42:22;38.00;;;12.57;;
51248;SDS011;39642;47.556;18.728;2024-01-10T14:44:47;37.80;;;13.02;;
51248;SDS011;39642;47.556;18.728;2024-01-10T14:47:13;40.78;;;12.80;;
51248;SDS011;39642;47.556;18.728;2024-01-10T14:49:39;36.67;;;12.82;;
51248;SDS011;39642;47.556;18.728;2024-01-10T14:52:05;55.15;;;14.15;;
51248;SDS011;39642;47.556;18.728;2024-01-10T14:54:31;59.78;;;14.85;;
51248;SDS011;39642;47.556;18.728;2024-01-10T14:56:57;63.33;;;15.40;;
51248;SDS011;39642;47.556;18.728;2024-01-10T14:59:23;47.30;;;14.48;;
51248;SDS011;39642;47.556;18.728;2024-01-10T15:01:49;42.72;;;13.27;;
51248;SDS011;39642;47.556;18.728;2024-01-10T15:04:14;49.53;;;14.00;;
51248;SDS011;39642;47.556;18.728;2024-01-10T15:06:44;58.22;;;12.82;;
51248;SDS011;39642;47.556;18.728;2024-01-10T15:09:12;97.85;;;16.17;;
51248;SDS011;39642;47.556;18.728;2024-01-10T15:11:39;248.13;;;24.58;;